Time;durP1;ratioP1;P1;durP2;ratioP2;P2;SDS_P1;SDS_P2;PMS_P1;PMS_P2;Temp;Humidity;BMP_temperature;BMP_pressure;BME280_temperature;BME280_humidity;BME280_pressure;Samples;Min_cycle;Max_cycle;Signal;HPM_P1;HPM_P2
2022/10/06 00:01:59;;;;;;;7.00;4.63;;;11.10;85.50;;;;;;5134740;27;20309;-62
2022/10/06 00:04:24;;;;;;;6.73;4.67;;;11.00;85.50;;;;;;5101715;27;20279;-62
2022/10/06 00:06:50;;;;;;;8.30;5.37;;;11.00;85.40;;;;;;5103950;27;20193;-62
2022/10/06 00:09:16;;;;;;;6.90;4.63;;;11.00;85.60;;;;;;5117696;27;20202;-62
2022/10/06 00:11:41;;;;;;;8.90;5.07;;;10.90;85.90;;;;;;5138551;27;20216;-62
2022/10/06 00:14:07;;;;;;;5.57;4.77;;;10.90;85.90;;;;;;5122453;27;20203;-63
2022/10/06 00:16:33;;;;;;;9.67;4.80;;;11.00;85.70;;;;;;5104483;27;20265;-62
2022/10/06 00:18:58;;;;;;;9.03;5.20;;;10.90;85.70;;;;;;5138542;27;20212;-62
2022/10/06 00:21:24;;;;;;;5.97;4.80;;;10.90;85.90;;;;;;5104926;27;20194;-62
2022/10/06 00:23:49;;;;;;;7.23;5.77;;;10.90;85.90;;;;;;5121656;27;20235;-62
2022/10/06 00:26:15;;;;;;;7.17;4.67;;;10.90;85.70;;;;;;5119005;27;20191;-62
2022/10/06 00:28:47;;;;;;;9.23;5.13;;;10.90;85.50;;;;;;5121380;27;20202;-62
2022/10/06 00:31:14;;;;;;;7.93;5.03;;;10.90;85.60;;;;;;5113373;27;20195;-62
2022/10/06 00:33:40;;;;;;;4.87;4.47;;;10.90;85.60;;;;;;5133205;27;20179;-62
2022/10/06 00:36:07;;;;;;;5.80;4.90;;;10.90;85.70;;;;;;5137781;27;20223;-62
2022/10/06 00:38:33;;;;;;;7.77;4.93;;;10.80;85.80;;;;;;5137645;27;20175;-63
2022/10/06 00:40:59;;;;;;;9.53;5.17;;;10.80;86.00;;;;;;5138084;27;20261;-62
2022/10/06 00:43:45;;;;;;;7.30;4.63;;;10.80;85.90;;;;;;5138518;27;20286;-62
2022/10/06 00:46:19;;;;;;;6.50;5.07;;;10.80;85.90;;;;;;5127594;27;20186;-62
2022/10/06 00:48:47;;;;;;;7.90;5.13;;;10.80;85.80;;;;;;5132398;27;20284;-62
2022/10/06 00:51:13;;;;;;;5.63;4.90;;;10.80;85.90;;;;;;5134346;27;20210;-62
2022/10/06 00:53:39;;;;;;;8.63;4.70;;;10.80;86.20;;;;;;5137573;27;20236;-62
2022/10/06 00:56:05;;;;;;;6.73;5.43;;;10.80;86.00;;;;;;5120128;27;20215;-62
2022/10/06 00:58:31;;;;;;;5.27;4.43;;;10.80;85.80;;;;;;5117936;27;20275;-62
2022/10/06 01:00:58;;;;;;;7.57;5.30;;;10.80;86.00;;;;;;5099480;27;20183;-62
2022/10/06 01:03:29;;;;;;;8.50;5.33;;;10.80;85.90;;;;;;5115656;27;20239;-62
2022/10/06 01:05:57;;;;;;;7.23;4.47;;;10.80;85.70;;;;;;5146164;27;20179;-62
2022/10/06 01:08:23;;;;;;;10.60;5.43;;;10.80;85.90;;;;;;5137191;27;20194;-62
2022/10/06 01:10:49;;;;;;;9.13;5.30;;;10.80;85.70;;;;;;5120947;27;20187;-62
2022/10/06 01:13:16;;;;;;;8.53;4.87;;;10.70;86.00;;;;;;5119068;27;20272;-62
2022/10/06 01:15:57;;;;;;;6.87;4.83;;;10.80;86.40;;;;;;5119365;27;20179;-62
2022/10/06 01:18:26;;;;;;;9.53;4.77;;;10.80;86.30;;;;;;5136959;27;20274;-62
2022/10/06 01:21:02;;;;;;;6.60;5.67;;;10.70;85.80;;;;;;5138224;27;20243;-62
2022/10/06 01:23:30;;;;;;;6.53;5.07;;;10.70;86.20;;;;;;5137685;27;20179;-62
2022/10/06 01:25:58;;;;;;;9.77;4.70;;;10.70;86.10;;;;;;5124153;27;20179;-62
2022/10/06 01:28:24;;;;;;;7.70;5.00;;;10.70;86.00;;;;;;5136122;27;20183;-62
2022/10/06 01:30:53;;;;;;;7.10;5.10;;;10.60;85.90;;;;;;5117145;27;20215;-62
2022/10/06 01:33:20;;;;;;;7.17;5.50;;;10.50;86.10;;;;;;5151780;27;20175;-62
2022/10/06 01:35:48;;;;;;;7.90;4.40;;;10.50;85.90;;;;;;5136894;27;20314;-62
2022/10/06 01:38:16;;;;;;;11.47;5.03;;;10.40;85.80;;;;;;5155764;27;20207;-62
2022/10/06 01:40:42;;;;;;;8.27;4.90;;;10.40;85.90;;;;;;5120246;27;20187;-62
2022/10/06 01:43:08;;;;;;;5.33;4.60;;;10.40;85.90;;;;;;5120036;27;20186;-62
2022/10/06 01:45:33;;;;;;;7.37;4.67;;;10.30;85.80;;;;;;5116796;28;20248;-62
2022/10/06 01:47:59;;;;;;;6.53;4.60;;;10.30;85.70;;;;;;5112755;27;20187;-62
2022/10/06 01:50:24;;;;;;;8.10;5.00;;;10.30;86.00;;;;;;5120332;27;20239;-62
2022/10/06 01:52:50;;;;;;;6.50;4.53;;;10.30;86.00;;;;;;5129942;27;20198;-62
2022/10/06 01:55:16;;;;;;;6.10;4.90;;;10.30;86.00;;;;;;5141311;27;20190;-62
2022/10/06 01:57:42;;;;;;;6.97;5.10;;;10.30;86.00;;;;;;5123965;27;20202;-62
2022/10/06 02:00:09;;;;;;;12.20;5.70;;;10.40;86.20;;;;;;5107691;27;20215;-62
2022/10/06 02:02:35;;;;;;;5.40;4.73;;;10.40;85.90;;;;;;5140115;27;20195;-62
2022/10/06 02:05:00;;;;;;;7.90;4.97;;;10.40;85.70;;;;;;5141482;27;20279;-62
2022/10/06 02:07:26;;;;;;;6.47;5.53;;;10.30;85.50;;;;;;5141533;27;20186;-62
2022/10/06 02:09:51;;;;;;;9.30;4.37;;;10.30;85.70;;;;;;5097159;27;20187;-62
2022/10/06 02:12:17;;;;;;;5.13;4.47;;;10.30;85.50;;;;;;5123949;27;20197;-62
2022/10/06 02:14:43;;;;;;;7.37;4.70;;;10.30;85.50;;;;;;5124481;27;20195;-62
2022/10/06 02:17:09;;;;;;;9.23;5.03;;;10.30;85.60;;;;;;5141005;27;20230;-62
2022/10/06 02:19:35;;;;;;;8.53;5.60;;;10.20;85.50;;;;;;5123133;27;20277;-62
2022/10/06 02:22:01;;;;;;;5.67;5.00;;;10.20;85.80;;;;;;5122790;27;20259;-62
2022/10/06 02:24:27;;;;;;;8.80;5.20;;;10.20;85.90;;;;;;5123078;27;20197;-62
2022/10/06 02:26:53;;;;;;;8.27;4.90;;;10.20;85.80;;;;;;5140448;27;20195;-62
2022/10/06 02:29:19;;;;;;;6.17;4.80;;;10.20;85.70;;;;;;5140771;27;20187;-62
2022/10/06 02:31:45;;;;;;;10.03;5.37;;;10.20;85.70;;;;;;5122175;27;20196;-62
2022/10/06 02:34:11;;;;;;;9.33;4.73;;;10.20;85.80;;;;;;5110825;27;20227;-62
2022/10/06 02:36:37;;;;;;;7.13;4.43;;;10.10;85.60;;;;;;5123320;27;20276;-62
2022/10/06 02:39:03;;;;;;;5.83;4.57;;;10.10;85.40;;;;;;5105954;27;20187;-62
2022/10/06 02:41:29;;;;;;;7.40;5.07;;;10.10;85.30;;;;;;5133866;27;20236;-62
2022/10/06 02:43:55;;;;;;;5.47;4.87;;;10.10;85.30;;;;;;5123595;27;20247;-63
2022/10/06 02:46:22;;;;;;;6.60;4.70;;;10.10;85.40;;;;;;5140394;27;20191;-62
2022/10/06 02:48:49;;;;;;;5.20;4.60;;;10.10;85.40;;;;;;5139875;27;20274;-62
2022/10/06 02:51:19;;;;;;;7.27;5.30;;;10.00;85.30;;;;;;5123637;27;20203;-62
2022/10/06 02:53:47;;;;;;;6.40;4.47;;;10.00;85.40;;;;;;5139926;27;20187;-62
2022/10/06 02:56:21;;;;;;;7.83;4.57;;;10.00;85.60;;;;;;5134767;27;20195;-62
2022/10/06 02:58:47;;;;;;;8.30;5.10;;;10.00;85.50;;;;;;5139820;27;20239;-63
2022/10/06 03:01:19;;;;;;;7.27;4.60;;;10.00;85.50;;;;;;5140185;27;20186;-62
2022/10/06 03:03:45;;;;;;;7.93;4.70;;;10.00;85.50;;;;;;5139364;27;20198;-62
2022/10/06 03:06:23;;;;;;;8.47;4.70;;;10.00;85.30;;;;;;5135966;27;20228;-62
2022/10/06 03:08:53;;;;;;;6.17;4.90;;;10.00;85.80;;;;;;5139832;27;20182;-62
2022/10/06 03:11:24;;;;;;;5.87;4.47;;;10.00;85.90;;;;;;5140145;27;20189;-62
2022/10/06 03:13:50;;;;;;;10.53;4.63;;;9.90;86.30;;;;;;5136217;27;20219;-62
2022/10/06 03:16:19;;;;;;;7.00;4.87;;;9.90;86.00;;;;;;5158135;27;20207;-62
2022/10/06 03:18:48;;;;;;;8.27;5.03;;;9.90;85.70;;;;;;5137236;27;20976;-62
2022/10/06 03:21:17;;;;;;;6.80;4.63;;;9.90;85.90;;;;;;5138425;27;20195;-62
2022/10/06 03:23:44;;;;;;;6.67;4.77;;;9.90;85.60;;;;;;5138216;27;20179;-62
2022/10/06 03:26:10;;;;;;;5.57;4.63;;;9.90;85.40;;;;;;5114055;27;20194;-62
2022/10/06 03:28:37;;;;;;;6.33;4.87;;;9.90;85.80;;;;;;5138692;27;20201;-62
2022/10/06 03:31:04;;;;;;;7.60;5.00;;;10.00;86.00;;;;;;5128367;27;20219;-62
2022/10/06 03:33:31;;;;;;;8.80;5.07;;;10.00;85.80;;;;;;5140064;27;20189;-63
2022/10/06 03:36:06;;;;;;;9.73;4.93;;;9.90;85.90;;;;;;5121513;27;20481;-62
2022/10/06 03:38:33;;;;;;;7.63;4.87;;;9.90;85.80;;;;;;5133136;27;20278;-62
2022/10/06 03:41:07;;;;;;;5.43;4.40;;;9.90;85.70;;;;;;5117190;27;20195;-62
2022/10/06 03:43:34;;;;;;;6.27;4.83;;;9.80;85.50;;;;;;5139463;27;20186;-62
2022/10/06 03:46:00;;;;;;;9.03;4.47;;;9.80;85.50;;;;;;5139483;27;20190;-62
2022/10/06 03:48:32;;;;;;;5.87;4.90;;;9.80;85.90;;;;;;5138985;27;20262;-62
2022/10/06 03:51:16;;;;;;;7.80;4.90;;;9.80;85.60;;;;;;5137941;27;20432;-62
2022/10/06 03:53:47;;;;;;;5.87;4.90;;;9.70;85.50;;;;;;5127015;27;20188;-63
2022/10/06 03:56:14;;;;;;;8.57;4.60;;;9.70;85.40;;;;;;5144000;27;20417;-62
2022/10/06 03:58:42;;;;;;;6.57;4.70;;;9.70;85.80;;;;;;5139309;27;20183;-62
2022/10/06 04:01:18;;;;;;;8.90;4.27;;;9.70;85.70;;;;;;5139094;27;20270;-61
2022/10/06 04:03:44;;;;;;;5.27;4.27;;;9.70;85.80;;;;;;5138569;27;20186;-62
2022/10/06 04:06:19;;;;;;;8.93;4.90;;;9.70;85.60;;;;;;5118753;27;20183;-62
2022/10/06 04:08:47;;;;;;;8.23;4.57;;;9.70;85.90;;;;;;5134947;27;20269;-61
2022/10/06 04:11:21;;;;;;;9.03;5.03;;;9.70;85.90;;;;;;5121603;27;20186;-62
2022/10/06 04:13:52;;;;;;;6.97;4.30;;;9.70;85.90;;;;;;5157269;27;20206;-62
2022/10/06 04:16:23;;;;;;;5.37;4.47;;;9.70;86.20;;;;;;5137809;27;20218;-62
2022/10/06 04:18:53;;;;;;;6.73;4.37;;;9.60;86.60;;;;;;5137465;27;20188;-62
2022/10/06 04:21:20;;;;;;;6.17;4.53;;;9.60;86.50;;;;;;5117455;27;20437;-62
2022/10/06 04:23:46;;;;;;;5.63;4.10;;;9.70;86.40;;;;;;5121376;27;20180;-62
2022/10/06 04:26:17;;;;;;;7.90;4.50;;;9.70;86.20;;;;;;5121445;27;20187;-62
2022/10/06 04:28:44;;;;;;;9.23;5.97;;;9.70;86.00;;;;;;5109183;27;20187;-63
2022/10/06 04:31:24;;;;;;;5.63;4.03;;;9.70;86.30;;;;;;5121307;27;20209;-62
2022/10/06 04:33:53;;;;;;;8.03;4.80;;;9.70;86.50;;;;;;5156117;27;20186;-62
2022/10/06 04:36:22;;;;;;;10.97;5.63;;;9.70;86.30;;;;;;5137734;27;20231;-61
2022/10/06 04:38:49;;;;;;;4.40;4.00;;;9.70;86.20;;;;;;5138131;27;20194;-61
2022/10/06 04:41:17;;;;;;;9.23;4.93;;;9.70;86.10;;;;;;5121444;27;20339;-62
2022/10/06 04:43:47;;;;;;;9.27;5.10;;;9.70;86.00;;;;;;5117602;27;20184;-62
2022/10/06 04:46:13;;;;;;;9.30;4.70;;;9.70;85.80;;;;;;5110587;27;20196;-62
2022/10/06 04:48:39;;;;;;;6.90;4.50;;;9.70;85.70;;;;;;5122230;27;20183;-61
2022/10/06 04:51:14;;;;;;;9.70;4.83;;;9.70;85.80;;;;;;5136215;27;20205;-61
2022/10/06 04:53:42;;;;;;;6.83;4.83;;;9.70;85.70;;;;;;5156425;27;20174;-62
2022/10/06 04:56:31;;;;;;;7.43;4.70;;;9.70;85.60;;;;;;5104130;27;20191;-62
2022/10/06 04:58:57;;;;;;;8.37;4.80;;;9.60;85.60;;;;;;5121194;27;20195;-61
2022/10/06 05:01:35;;;;;;;7.60;4.37;;;9.60;85.70;;;;;;5134046;27;20209;-61
2022/10/06 05:04:02;;;;;;;5.23;3.97;;;9.60;85.50;;;;;;5155847;27;20178;-61
2022/10/06 05:06:30;;;;;;;4.93;4.30;;;9.60;85.50;;;;;;5120267;27;20190;-61
2022/10/06 05:08:59;;;;;;;7.50;4.63;;;9.60;85.90;;;;;;5137603;27;20201;-62
2022/10/06 05:11:26;;;;;;;10.03;4.40;;;9.60;86.10;;;;;;5137230;27;20190;-61
2022/10/06 05:13:54;;;;;;;9.07;4.67;;;9.60;85.80;;;;;;5120245;27;20222;-61
2022/10/06 05:16:20;;;;;;;8.37;5.00;;;9.60;86.30;;;;;;5137405;27;20301;-61
2022/10/06 05:18:47;;;;;;;5.90;4.97;;;9.60;85.90;;;;;;5120470;27;20187;-62
2022/10/06 05:21:15;;;;;;;9.40;4.40;;;9.60;85.90;;;;;;5137833;27;20436;-62
2022/10/06 05:23:42;;;;;;;5.77;4.20;;;9.60;85.90;;;;;;5155437;27;20441;-62
2022/10/06 05:26:11;;;;;;;7.90;4.90;;;9.60;86.10;;;;;;5137517;27;20176;-61
2022/10/06 05:28:38;;;;;;;5.77;4.50;;;9.60;86.10;;;;;;5135512;27;20190;-61
2022/10/06 05:31:09;;;;;;;5.10;4.57;;;9.60;86.00;;;;;;5119359;27;20198;-61
2022/10/06 05:33:35;;;;;;;7.07;5.40;;;9.60;85.90;;;;;;5136962;27;20359;-61
2022/10/06 05:36:05;;;;;;;7.90;4.40;;;9.60;86.40;;;;;;5137179;27;20235;-61
2022/10/06 05:38:32;;;;;;;4.60;4.17;;;9.60;86.50;;;;;;5136942;27;20251;-61
2022/10/06 05:41:01;;;;;;;8.53;5.23;;;9.60;86.70;;;;;;5137300;27;20189;-61
2022/10/06 05:43:27;;;;;;;8.50;5.33;;;9.60;86.60;;;;;;5131943;27;20191;-61
2022/10/06 05:45:57;;;;;;;6.17;4.87;;;9.60;87.10;;;;;;5113600;27;20216;-62
2022/10/06 05:48:24;;;;;;;7.57;5.00;;;9.60;87.10;;;;;;5127860;27;20191;-61
2022/10/06 05:50:59;;;;;;;7.27;4.57;;;9.70;86.90;;;;;;5114481;28;20236;-62
2022/10/06 05:53:25;;;;;;;6.20;4.80;;;9.70;86.80;;;;;;5113880;28;20210;-61
2022/10/06 05:55:51;;;;;;;7.03;5.33;;;9.80;86.60;;;;;;5077810;28;20197;-61
2022/10/06 05:58:16;;;;;;;9.00;5.30;;;9.80;86.50;;;;;;5095366;28;20219;-61
2022/10/06 06:00:42;;;;;;;6.90;5.33;;;9.80;86.50;;;;;;5090283;28;20200;-61
2022/10/06 06:03:09;;;;;;;10.17;5.87;;;9.80;86.50;;;;;;5092825;28;20188;-61
2022/10/06 06:05:40;;;;;;;9.20;5.23;;;9.80;86.70;;;;;;5109584;28;20210;-61
2022/10/06 06:08:06;;;;;;;9.00;5.80;;;9.90;86.60;;;;;;5109548;28;20196;-61
2022/10/06 06:10:32;;;;;;;7.43;5.20;;;9.90;86.70;;;;;;5062868;28;20279;-61
2022/10/06 06:12:57;;;;;;;7.40;5.67;;;10.00;86.70;;;;;;5093459;28;20200;-61
2022/10/06 06:16:08;;;;;;;8.00;5.60;;;10.00;86.80;;;;;;5074998;28;20669;-61
2022/10/06 06:18:11;;;;;;;7.77;5.87;;;10.00;86.80;;;;;;5096886;28;20255;-61
2022/10/06 06:20:37;;;;;;;9.50;5.17;;;10.10;86.90;;;;;;5088745;28;20207;-61
2022/10/06 06:23:03;;;;;;;9.20;5.27;;;10.10;87.00;;;;;;5090454;28;20189;-61
2022/10/06 06:25:28;;;;;;;8.83;5.47;;;10.20;87.30;;;;;;5074441;28;20288;-61
2022/10/06 06:27:54;;;;;;;8.67;4.83;;;10.30;87.20;;;;;;5092822;28;20627;-61
2022/10/06 06:30:21;;;;;;;6.50;4.83;;;10.30;87.20;;;;;;5093831;28;20239;-61
2022/10/06 06:32:46;;;;;;;6.67;4.50;;;10.30;87.40;;;;;;5116416;28;20245;-61
2022/10/06 06:35:12;;;;;;;6.03;4.80;;;10.30;87.40;;;;;;5080208;28;20193;-61
2022/10/06 06:37:38;;;;;;;6.43;5.00;;;10.40;87.50;;;;;;5080448;28;20248;-61
2022/10/06 06:40:04;;;;;;;8.53;5.27;;;10.50;87.70;;;;;;5091396;28;20195;-61
2022/10/06 06:42:30;;;;;;;6.13;4.57;;;10.50;87.80;;;;;;5105555;28;20239;-61
2022/10/06 06:44:55;;;;;;;5.60;4.77;;;10.60;87.80;;;;;;5078479;28;20185;-61
2022/10/06 06:47:21;;;;;;;6.03;5.33;;;10.70;87.80;;;;;;5095417;28;20192;-61
2022/10/06 06:49:47;;;;;;;8.00;5.07;;;10.70;87.70;;;;;;5086823;28;20245;-62
2022/10/06 06:52:13;;;;;;;7.17;4.87;;;10.70;87.80;;;;;;5096986;28;20201;-61
2022/10/06 06:54:39;;;;;;;6.33;4.60;;;10.80;87.80;;;;;;5091926;28;20200;-62
2022/10/06 06:57:06;;;;;;;7.53;5.00;;;10.80;87.80;;;;;;5087911;28;20247;-61
2022/10/06 06:59:32;;;;;;;8.53;4.67;;;10.80;88.10;;;;;;5095673;28;20185;-62
2022/10/06 07:01:59;;;;;;;5.47;4.97;;;10.90;88.00;;;;;;5097776;28;20188;-62
2022/10/06 07:04:26;;;;;;;6.07;4.53;;;10.90;87.90;;;;;;5094864;28;20192;-62
2022/10/06 07:06:57;;;;;;;8.33;5.00;;;11.00;88.00;;;;;;5093516;28;20195;-62
2022/10/06 07:09:26;;;;;;;7.10;4.97;;;11.00;88.10;;;;;;5093770;28;20196;-61
2022/10/06 07:11:53;;;;;;;6.70;5.10;;;11.10;88.00;;;;;;5095001;28;20188;-62
2022/10/06 07:14:21;;;;;;;7.63;5.77;;;11.10;88.00;;;;;;5109738;28;20272;-62
2022/10/06 07:25:06;;;;;;;8.73;5.70;;;11.30;87.90;;;;;;5115165;28;20183;-62
2022/10/06 07:27:37;;;;;;;9.77;5.33;;;11.30;87.80;;;;;;5111132;28;20227;-62
2022/10/06 07:30:04;;;;;;;5.83;4.83;;;11.40;87.80;;;;;;5101853;28;20188;-62
2022/10/06 07:32:30;;;;;;;8.77;5.73;;;11.50;87.80;;;;;;5096041;28;20192;-62
2022/10/06 07:34:59;;;;;;;12.37;5.97;;;11.50;87.80;;;;;;5109671;28;20204;-62
2022/10/06 07:37:27;;;;;;;12.43;5.70;;;11.60;87.90;;;;;;5108274;28;20236;-62
2022/10/06 07:39:53;;;;;;;7.63;5.87;;;11.70;88.00;;;;;;5114236;27;20215;-61
2022/10/06 07:42:19;;;;;;;7.47;5.47;;;11.80;87.90;;;;;;5103181;28;20213;-62
2022/10/06 07:47:32;;;;;;;9.63;5.40;;;11.80;88.30;;;;;;5086746;28;20204;-62
2022/10/06 07:49:57;;;;;;;5.73;5.17;;;11.90;88.00;;;;;;5084402;28;20181;-62
2022/10/06 07:52:24;;;;;;;11.40;6.30;;;11.90;88.00;;;;;;5092641;28;20224;-62
2022/10/06 07:54:50;;;;;;;7.47;5.63;;;12.00;88.10;;;;;;5092961;28;20192;-62
2022/10/06 07:57:15;;;;;;;6.83;5.47;;;12.10;88.00;;;;;;5094205;28;20265;-62
2022/10/06 07:59:41;;;;;;;10.20;6.00;;;12.20;87.90;;;;;;5096437;28;20189;-62
2022/10/06 08:02:07;;;;;;;7.50;5.30;;;12.30;88.20;;;;;;5092008;28;20217;-62
2022/10/06 08:04:32;;;;;;;11.33;5.93;;;12.30;87.90;;;;;;5110066;28;20189;-62
2022/10/06 08:06:58;;;;;;;11.00;5.87;;;12.40;87.90;;;;;;5079333;28;20199;-62
2022/10/06 08:09:24;;;;;;;6.93;5.47;;;12.50;88.00;;;;;;5109397;28;20197;-62
2022/10/06 08:11:49;;;;;;;7.23;5.20;;;12.60;88.10;;;;;;5111605;28;20185;-62
2022/10/06 08:14:15;;;;;;;6.53;5.37;;;12.70;88.00;;;;;;5095435;28;20184;-62
2022/10/06 08:16:41;;;;;;;6.87;6.17;;;12.80;87.90;;;;;;5095629;28;20251;-62
2022/10/06 08:19:06;;;;;;;6.83;4.97;;;12.90;87.90;;;;;;5094875;28;20215;-62
2022/10/06 08:21:33;;;;;;;9.13;6.03;;;13.00;87.80;;;;;;5091983;28;21354;-62
2022/10/06 08:24:00;;;;;;;10.97;6.00;;;13.20;87.40;;;;;;5093903;28;20236;-62
2022/10/06 08:26:27;;;;;;;6.47;5.33;;;13.60;86.70;;;;;;5095261;28;20325;-62
2022/10/06 08:29:01;;;;;;;8.87;5.10;;;13.80;86.20;;;;;;5105543;28;20174;-62
2022/10/06 08:31:28;;;;;;;8.80;5.97;;;13.80;86.30;;;;;;5093635;28;20184;-62
2022/10/06 08:33:56;;;;;;;6.67;5.83;;;13.90;86.90;;;;;;5110056;28;20220;-63
2022/10/06 08:36:23;;;;;;;7.80;5.43;;;14.10;86.00;;;;;;5100140;28;20227;-62
2022/10/06 08:38:49;;;;;;;7.63;5.00;;;14.10;85.80;;;;;;5093986;28;20244;-62
2022/10/06 08:41:34;;;;;;;8.53;5.87;;;14.20;85.90;;;;;;5104399;28;20279;-62
2022/10/06 08:44:25;;;;;;;9.30;5.63;;;14.30;85.70;;;;;;5102960;28;20180;-62
2022/10/06 08:47:01;;;;;;;6.50;4.80;;;14.50;85.60;;;;;;5112370;28;20278;-62
2022/10/06 08:49:37;;;;;;;5.37;4.80;;;14.50;85.90;;;;;;5108339;28;20191;-62
2022/10/06 08:52:40;;;;;;;7.97;5.00;;;14.70;85.30;;;;;;5104953;28;20215;-62
2022/10/06 08:55:57;;;;;;;7.67;4.50;;;14.80;84.80;;;;;;5096156;28;20184;-62
2022/10/06 08:58:52;;;;;;;6.77;5.27;;;15.20;80.50;;;;;;5064797;28;20236;-60
2022/10/06 09:01:32;;;;;;;7.33;4.33;;;15.50;80.30;;;;;;5112043;28;20191;-59
2022/10/06 09:04:04;;;;;;;8.93;4.43;;;15.70;77.90;;;;;;5103307;28;20185;-59
2022/10/06 09:06:54;;;;;;;8.70;4.30;;;15.80;76.80;;;;;;5106239;28;20205;-59
2022/10/06 09:09:24;;;;;;;6.17;4.00;;;16.20;75.50;;;;;;5097779;28;20194;-59
2022/10/06 09:12:10;;;;;;;8.07;4.33;;;16.30;75.60;;;;;;5103952;28;20288;-59
2022/10/06 09:14:46;;;;;;;7.63;4.57;;;16.30;75.20;;;;;;5107467;28;20195;-59
2022/10/06 09:17:21;;;;;;;7.83;4.30;;;16.30;75.90;;;;;;5092697;28;20201;-59
2022/10/06 09:19:58;;;;;;;6.50;3.90;;;16.30;75.80;;;;;;5111208;28;20266;-59
2022/10/06 09:22:28;;;;;;;9.77;4.00;;;16.30;75.00;;;;;;5109443;28;20176;-59
2022/10/06 09:24:58;;;;;;;5.27;3.90;;;16.30;74.90;;;;;;5109024;28;20214;-59
2022/10/06 09:27:32;;;;;;;5.27;3.60;;;16.30;76.00;;;;;;5103032;28;21166;-61
2022/10/06 09:30:00;;;;;;;4.57;4.10;;;16.30;76.30;;;;;;5102562;28;20270;-60
2022/10/06 09:32:27;;;;;;;6.37;3.83;;;16.30;76.50;;;;;;5108975;28;20204;-60
2022/10/06 09:34:55;;;;;;;4.83;3.83;;;16.40;74.90;;;;;;5111157;28;20194;-61
2022/10/06 09:37:22;;;;;;;6.77;3.70;;;16.60;73.80;;;;;;5102461;28;20251;-60
2022/10/06 09:39:50;;;;;;;10.23;4.23;;;16.70;74.60;;;;;;5111386;28;20208;-61
2022/10/06 09:42:33;;;;;;;6.57;4.10;;;16.80;75.50;;;;;;5103379;28;20188;-61
2022/10/06 09:45:21;;;;;;;5.93;3.80;;;16.80;74.90;;;;;;5088058;28;20186;-61
2022/10/06 09:47:47;;;;;;;6.03;4.07;;;16.80;71.40;;;;;;5094745;28;20214;-60
2022/10/06 09:50:20;;;;;;;4.77;3.50;;;17.00;71.30;;;;;;5105013;28;20181;-60
2022/10/06 09:53:07;;;;;;;5.60;3.43;;;17.20;70.70;;;;;;5109822;28;20195;-61
2022/10/06 09:55:33;;;;;;;9.47;3.90;;;17.20;71.30;;;;;;5102445;28;20181;-61
2022/10/06 09:58:00;;;;;;;4.47;3.33;;;17.30;71.50;;;;;;5111324;28;20218;-61
2022/10/06 10:00:26;;;;;;;3.83;3.43;;;17.30;72.90;;;;;;5110890;28;20180;-61
2022/10/06 10:03:04;;;;;;;3.93;3.17;;;17.30;72.10;;;;;;5108842;28;20306;-61
2022/10/06 10:05:33;;;;;;;5.47;3.43;;;17.30;71.40;;;;;;5096264;28;20270;-61
2022/10/06 10:08:21;;;;;;;2.73;2.53;;;17.40;71.20;;;;;;5107455;28;20180;-61
2022/10/06 10:10:48;;;;;;;4.23;3.10;;;17.40;72.10;;;;;;5111512;28;20257;-61
2022/10/06 10:13:23;;;;;;;6.43;3.37;;;17.70;69.90;;;;;;5104803;28;20216;-61
2022/10/06 10:16:00;;;;;;;3.27;2.97;;;17.80;69.80;;;;;;5119489;27;20187;-61
2022/10/06 10:18:29;;;;;;;5.10;3.00;;;17.80;67.50;;;;;;5113877;28;20212;-61
2022/10/06 10:21:09;;;;;;;8.10;3.47;;;18.10;64.30;;;;;;5116123;28;20266;-61
2022/10/06 10:23:54;;;;;;;2.87;2.20;;;18.50;63.00;;;;;;5096970;28;20197;-61
2022/10/06 10:26:37;;;;;;;3.30;3.00;;;18.50;64.50;;;;;;5114847;28;20314;-61
2022/10/06 10:29:13;;;;;;;4.17;2.40;;;18.50;65.50;;;;;;5119049;27;20190;-61
2022/10/06 10:32:17;;;;;;;6.00;2.40;;;18.60;65.00;;;;;;5111684;28;20256;-61
2022/10/06 10:34:58;;;;;;;5.33;3.33;;;18.60;66.10;;;;;;5106223;28;20192;-61
2022/10/06 10:37:34;;;;;;;3.23;2.30;;;18.70;66.90;;;;;;5105103;28;20228;-60
2022/10/06 10:40:08;;;;;;;3.87;2.47;;;18.70;64.00;;;;;;5096964;28;20189;-60
2022/10/06 10:43:05;;;;;;;3.37;2.10;;;18.70;65.10;;;;;;5108144;28;20233;-60
2022/10/06 10:45:39;;;;;;;2.73;2.03;;;18.70;66.10;;;;;;5104996;28;20185;-60
2022/10/06 10:48:18;;;;;;;2.83;2.57;;;18.70;65.50;;;;;;5110737;28;20215;-60
2022/10/06 10:51:01;;;;;;;3.70;2.60;;;18.70;65.00;;;;;;5094291;28;20190;-60
2022/10/06 10:53:56;;;;;;;2.50;2.30;;;18.70;64.60;;;;;;5108903;28;20216;-60
2022/10/06 10:56:25;;;;;;;2.57;2.37;;;19.10;62.10;;;;;;5104185;28;20202;-60
2022/10/06 10:59:16;;;;;;;5.57;2.33;;;19.20;62.90;;;;;;5105890;28;20320;-60
2022/10/06 11:02:04;;;;;;;2.60;2.40;;;19.50;61.60;;;;;;5113749;28;20180;-60
2022/10/06 11:04:30;;;;;;;3.80;2.10;;;19.80;60.10;;;;;;5103003;28;20217;-60
2022/10/06 11:07:08;;;;;;;4.23;2.47;;;19.90;56.20;;;;;;5096340;28;20216;-60
2022/10/06 11:09:55;;;;;;;2.97;2.30;;;20.00;57.70;;;;;;5114726;28;20184;-60
2022/10/06 11:12:39;;;;;;;4.57;2.40;;;20.00;55.50;;;;;;5101729;28;20208;-60
2022/10/06 11:15:11;;;;;;;7.10;2.73;;;19.90;58.00;;;;;;5113540;28;20190;-60
2022/10/06 11:17:43;;;;;;;3.70;2.40;;;19.80;58.00;;;;;;5111104;28;20212;-61
2022/10/06 11:20:31;;;;;;;3.40;2.47;;;19.70;59.00;;;;;;5109619;28;20210;-61
2022/10/06 11:23:28;;;;;;;3.17;2.20;;;19.50;61.10;;;;;;5111131;28;20195;-61
2022/10/06 11:26:10;;;;;;;3.83;2.33;;;19.60;62.60;;;;;;5104482;28;20176;-61
2022/10/06 11:28:45;;;;;;;3.90;2.27;;;20.10;55.80;;;;;;5105473;28;20230;-60
2022/10/06 11:31:44;;;;;;;3.27;2.63;;;20.20;57.00;;;;;;5100728;28;20180;-60
2022/10/06 11:34:11;;;;;;;3.53;2.60;;;20.30;55.00;;;;;;5094255;28;20327;-60
2022/10/06 11:36:40;;;;;;;2.27;2.07;;;20.60;54.20;;;;;;5095022;28;20279;-60
2022/10/06 11:39:43;;;;;;;3.30;2.23;;;20.60;52.70;;;;;;5111335;28;20208;-60
2022/10/06 11:42:19;;;;;;;3.13;2.13;;;20.60;56.90;;;;;;5108203;28;20177;-60
2022/10/06 11:44:52;;;;;;;3.77;2.23;;;20.70;56.60;;;;;;5104266;28;20180;-60
2022/10/06 11:47:29;;;;;;;2.27;2.07;;;20.80;58.60;;;;;;5111891;28;20237;-61
2022/10/06 11:49:55;;;;;;;2.97;1.90;;;21.00;53.50;;;;;;5109035;28;20179;-61
2022/10/06 11:52:21;;;;;;;2.57;1.90;;;21.00;56.00;;;;;;5095319;28;20192;-61
2022/10/06 11:54:53;;;;;;;4.53;2.10;;;21.00;54.70;;;;;;5098702;28;20261;-61
2022/10/06 11:57:21;;;;;;;3.73;2.67;;;21.10;57.40;;;;;;5111385;28;20212;-61
2022/10/06 11:59:52;;;;;;;5.30;2.17;;;21.30;58.10;;;;;;5108371;28;20181;-61
2022/10/06 12:02:33;;;;;;;2.57;2.33;;;21.30;58.00;;;;;;5104879;28;20215;-61
2022/10/06 12:05:08;;;;;;;2.47;2.10;;;21.30;57.50;;;;;;5094314;28;20192;-61
2022/10/06 12:07:56;;;;;;;3.27;2.70;;;21.40;57.30;;;;;;5109532;28;20217;-62
2022/10/06 12:10:28;;;;;;;4.93;2.40;;;21.40;53.30;;;;;;5105628;28;20184;-62
2022/10/06 12:13:21;;;;;;;4.60;2.83;;;21.70;53.80;;;;;;5109545;28;20184;-62
2022/10/06 12:16:12;;;;;;;3.87;2.30;;;21.70;52.40;;;;;;5111554;28;20192;-60
2022/10/06 12:19:04;;;;;;;2.10;2.00;;;21.80;54.00;;;;;;5101965;28;20228;-60
2022/10/06 12:21:49;;;;;;;3.37;2.07;;;21.80;55.30;;;;;;5096409;28;20224;-62
2022/10/06 12:24:32;;;;;;;4.47;3.00;;;21.80;54.50;;;;;;5111149;28;20176;-62
2022/10/06 12:27:09;;;;;;;2.87;2.23;;;22.10;53.30;;;;;;5109700;28;20237;-60
2022/10/06 12:29:48;;;;;;;3.30;2.20;;;22.00;52.00;;;;;;5111600;28;20241;-62
2022/10/06 12:32:32;;;;;;;3.50;2.27;;;21.90;55.30;;;;;;5101960;28;20188;-61
2022/10/06 12:35:26;;;;;;;6.00;2.60;;;21.90;56.00;;;;;;5114562;28;20215;-60
2022/10/06 12:37:54;;;;;;;2.50;2.30;;;21.90;56.30;;;;;;5108863;28;20259;-60
2022/10/06 12:40:45;;;;;;;8.73;2.40;;;22.00;56.20;;;;;;5102856;28;20188;-62
2022/10/06 12:43:17;;;;;;;2.53;2.33;;;22.20;57.10;;;;;;5101835;28;20181;-61
2022/10/06 12:45:45;;;;;;;4.77;2.63;;;22.50;57.40;;;;;;5092429;28;20192;-61
2022/10/06 12:48:23;;;;;;;4.67;2.67;;;22.70;55.80;;;;;;5102192;28;20216;-61
2022/10/06 12:51:10;;;;;;;3.70;2.17;;;22.80;52.30;;;;;;5122733;27;20226;-62
2022/10/06 12:53:43;;;;;;;6.07;2.70;;;22.80;52.30;;;;;;5106637;28;20200;-60
2022/10/06 12:56:28;;;;;;;4.67;2.57;;;22.80;49.70;;;;;;5099031;28;20206;-61
2022/10/06 12:58:54;;;;;;;3.67;2.30;;;22.90;50.10;;;;;;5098515;28;20193;-62
2022/10/06 13:01:21;;;;;;;2.97;2.27;;;23.10;52.50;;;;;;5094829;28;20181;-61
2022/10/06 13:03:49;;;;;;;5.97;2.27;;;23.30;53.60;;;;;;5092527;28;20201;-60
2022/10/06 13:06:20;;;;;;;3.20;2.27;;;23.50;49.70;;;;;;5112264;28;20195;-62
2022/10/06 13:09:05;;;;;;;3.23;2.20;;;23.60;49.00;;;;;;5112624;28;20227;-62
2022/10/06 13:11:31;;;;;;;2.90;1.93;;;23.90;51.90;;;;;;5105019;28;20187;-62
2022/10/06 13:14:07;;;;;;;3.50;2.20;;;24.00;47.50;;;;;;5111646;28;20189;-61
2022/10/06 13:16:39;;;;;;;3.13;2.57;;;24.00;47.60;;;;;;5109417;28;20962;-61
2022/10/06 13:19:24;;;;;;;3.57;2.60;;;24.00;47.80;;;;;;5092661;28;20177;-63
2022/10/06 13:21:49;;;;;;;4.47;2.80;;;24.10;46.50;;;;;;5101054;28;20185;-61